Time;durP1;ratioP1;P1;durP2;ratioP2;P2;SDS_P1;SDS_P2;PMS_P1;PMS_P2;Temp;Humidity;BMP_temperature;BMP_pressure;BME280_temperature;BME280_humidity;BME280_pressure;Samples;Min_cycle;Max_cycle;Signal;HPM_P1;HPM_P2
2022/11/16 00:01:41;;;;;;;5.55;5.18;;;;;;;10.48;100.00;99591.31;6005169;23;20097;-74
2022/11/16 00:04:08;;;;;;;5.30;5.00;;;;;;;10.10;100.00;99530.06;6042199;23;20444;-73
2022/11/16 00:06:35;;;;;;;5.50;5.10;;;;;;;10.37;100.00;99566.66;6008435;23;20089;-73
2022/11/16 00:11:51;;;;;;;5.97;5.57;;;;;;;9.90;100.00;99491.25;6012082;23;20042;-74
2022/11/16 00:14:18;;;;;;;5.90;5.53;;;;;;;10.44;100.00;99568.84;6030927;23;20023;-74
2022/11/16 00:16:45;;;;;;;5.85;5.45;;;;;;;10.49;100.00;99587.75;6005809;23;20031;-75
2022/11/16 00:19:12;;;;;;;5.70;5.30;;;;;;;10.45;100.00;99586.28;6020831;23;20117;-74
2022/11/16 00:21:39;;;;;;;6.85;4.93;;;;;;;10.47;100.00;99569.50;5994411;23;20020;-74
2022/11/16 00:24:06;;;;;;;5.93;5.43;;;;;;;10.48;100.00;99570.31;6028955;23;20022;-76
2022/11/16 00:26:33;;;;;;;6.10;5.65;;;;;;;10.48;100.00;99584.25;6002164;23;20091;-76
2022/11/16 00:28:59;;;;;;;5.72;5.22;;;;;;;9.74;100.00;99460.03;6028630;23;20072;-75
2022/11/16 00:31:26;;;;;;;6.25;5.78;;;;;;;9.86;100.00;99490.66;6003530;23;20043;-76
2022/11/16 00:33:52;;;;;;;5.50;5.05;;;;;;;10.32;100.00;99550.44;6027803;23;20457;-75
2022/11/16 00:36:18;;;;;;;5.13;4.80;;;;;;;10.52;100.00;99580.50;6038314;23;20025;-76
2022/11/16 00:38:45;;;;;;;5.75;5.25;;;;;;;10.36;100.00;99557.13;6032226;23;20512;-76
2022/11/16 00:41:11;;;;;;;5.55;5.25;;;;;;;9.49;100.00;99409.34;6031901;23;20030;-75
2022/11/16 00:43:38;;;;;;;5.65;5.32;;;;;;;10.26;100.00;99545.53;6003103;23;20081;-75
2022/11/16 00:46:04;;;;;;;6.07;5.60;;;;;;;10.53;100.00;99570.84;6036807;23;20015;-76
2022/11/16 00:48:31;;;;;;;6.00;5.60;;;;;;;10.50;100.00;99581.53;6025094;23;20027;-76
2022/11/16 00:50:58;;;;;;;7.07;6.38;;;;;;;10.52;100.00;99577.03;6037498;23;20056;-75
2022/11/16 00:53:24;;;;;;;5.80;5.28;;;;;;;10.10;100.00;99518.72;5996973;23;20023;-75
2022/11/16 00:55:50;;;;;;;5.95;5.35;;;;;;;10.54;100.00;99580.38;6014735;23;20279;-75
2022/11/16 00:58:17;;;;;;;5.25;4.95;;;;;;;10.51;100.00;99570.13;6009841;23;20010;-75
2022/11/16 01:00:43;;;;;;;6.70;6.13;;;;;;;10.07;100.00;99501.44;6016107;23;20030;-74
2022/11/16 01:03:10;;;;;;;5.57;5.07;;;;;;;10.36;100.00;99554.50;6032095;23;20027;-74
2022/11/16 01:05:37;;;;;;;6.30;5.80;;;;;;;9.78;100.00;99459.75;6026456;23;20086;-74
2022/11/16 01:08:04;;;;;;;15.55;5.80;;;;;;;9.81;100.00;99461.31;6032674;23;20018;-74
2022/11/16 01:10:30;;;;;;;6.28;5.72;;;;;;;10.49;100.00;99572.84;6010478;23;20030;-74
2022/11/16 01:12:57;;;;;;;5.93;5.43;;;;;;;10.47;100.00;99572.13;6043514;23;20126;-76
2022/11/16 01:15:26;;;;;;;6.28;5.57;;;;;;;10.07;100.00;99511.09;6008773;23;20017;-76
2022/11/16 01:17:54;;;;;;;5.55;4.95;;;;;;;10.49;100.00;99572.00;6030153;23;20683;-76
2022/11/16 01:20:24;;;;;;;6.20;5.70;;;;;;;10.35;100.00;99552.81;6026016;23;20025;-74
2022/11/16 01:22:51;;;;;;;5.93;5.40;;;;;;;9.92;100.00;99492.84;6033827;23;20162;-76
2022/11/16 01:25:18;;;;;;;5.72;5.32;;;;;;;10.25;100.00;99532.56;5980369;23;20019;-75
2022/11/16 01:27:44;;;;;;;7.90;6.43;;;;;;;10.52;100.00;99584.91;6028200;23;20021;-75
2022/11/16 01:30:13;;;;;;;5.50;5.20;;;;;;;10.42;100.00;99555.84;6032262;23;20030;-75
2022/11/16 01:32:39;;;;;;;6.65;5.93;;;;;;;10.08;100.00;99511.00;6007696;23;20023;-76
2022/11/16 01:35:06;;;;;;;5.95;5.60;;;;;;;10.57;100.00;99593.31;6001272;23;20027;-75
2022/11/16 01:37:33;;;;;;;5.28;4.82;;;;;;;10.04;100.00;99509.50;6031266;23;20046;-75
2022/11/16 01:39:59;;;;;;;5.55;5.20;;;;;;;10.08;100.00;99515.38;6024816;23;20471;-75
2022/11/16 01:42:28;;;;;;;5.95;5.40;;;;;;;9.50;100.00;99418.88;6006520;23;20015;-75
2022/11/16 01:45:01;;;;;;;5.55;5.13;;;;;;;9.81;100.00;99463.09;6050299;23;20039;-75
2022/11/16 01:47:28;;;;;;;6.10;5.60;;;;;;;10.00;100.00;99502.78;6030649;23;20011;-75
2022/11/16 01:50:11;;;;;;;6.47;6.03;;;;;;;10.02;100.00;99497.44;6006248;23;20489;-74
2022/11/16 01:52:46;;;;;;;6.35;5.88;;;;;;;10.04;100.00;99503.41;6037578;23;20285;-76
2022/11/16 01:55:12;;;;;;;6.20;5.70;;;;;;;10.40;100.00;99562.16;6023844;23;20027;-77
2022/11/16 01:57:42;;;;;;;6.65;6.05;;;;;;;9.78;100.00;99456.25;5988203;23;20027;-74
2022/11/16 02:00:11;;;;;;;7.43;6.00;;;;;;;10.50;100.00;99585.03;6005468;23;20094;-76
2022/11/16 02:02:37;;;;;;;6.50;5.90;;;;;;;10.58;100.00;99568.72;5999862;23;20030;-74
2022/11/16 02:05:05;;;;;;;5.93;5.53;;;;;;;10.22;100.00;99533.59;6025994;23;20119;-75
2022/11/16 02:09:52;;;;;;;6.57;6.07;;;;;;;10.61;100.00;99565.06;5994152;23;20406;-75
2022/11/16 02:10:45;;;;;;;6.50;5.90;;;;;;;10.57;100.00;99557.41;6023198;23;20065;-75
2022/11/16 02:13:18;;;;;;;5.75;5.40;;;;;;;10.15;100.00;99495.66;5973238;24;20509;-74
2022/11/16 02:15:49;;;;;;;;;;;;;;;10.53;100.00;99563.81;6025788;23;20164;-75
2022/11/16 02:18:27;;;;;;;5.10;4.80;;;;;;;10.50;100.00;99573.69;6001117;23;20017;-75
2022/11/16 02:20:56;;;;;;;6.05;5.65;;;;;;;10.49;100.00;99577.25;6007296;23;20019;-76
2022/11/16 02:23:40;;;;;;;7.32;6.57;;;;;;;10.37;100.00;99561.41;6041147;23;20486;-74
2022/11/16 02:26:43;;;;;;;6.13;5.63;;;;;;;10.29;100.00;99531.41;6026047;23;20035;-75
2022/11/16 02:29:28;;;;;;;5.30;5.00;;;;;;;10.49;100.00;99570.22;6025809;23;20031;-76
2022/11/16 02:32:04;;;;;;;6.57;6.10;;;;;;;10.52;100.00;99556.91;6004613;23;20022;-76
2022/11/16 02:34:35;;;;;;;5.90;5.40;;;;;;;9.68;100.00;99403.69;6035807;23;20677;-74
2022/11/16 02:37:05;;;;;;;6.15;5.65;;;;;;;10.48;100.00;99539.66;6000245;23;20019;-77
2022/11/16 02:39:33;;;;;;;7.05;6.03;;;;;;;10.51;100.00;99543.88;6032573;23;20143;-74
2022/11/16 02:42:02;;;;;;;5.43;5.10;;;;;;;10.47;100.00;99538.00;6010325;23;20061;-76
2022/11/16 02:44:33;;;;;;;6.20;5.65;;;;;;;10.46;100.00;99543.34;6026092;23;20027;-73
2022/11/16 02:47:03;;;;;;;5.90;5.45;;;;;;;10.45;100.00;99542.53;5992977;23;20055;-74
2022/11/16 02:49:37;;;;;;;5.88;5.40;;;;;;;10.21;100.00;99500.47;6033176;23;20027;-74
2022/11/16 02:52:04;;;;;;;8.52;5.55;;;;;;;10.40;100.00;99534.13;6004179;23;20505;-74
2022/11/16 02:54:30;;;;;;;7.07;5.57;;;;;;;10.41;100.00;99545.47;6045207;23;20026;-74
2022/11/16 02:57:02;;;;;;;5.75;5.35;;;;;;;10.40;100.00;99544.63;6015544;23;20034;-75
2022/11/16 02:59:35;;;;;;;6.82;6.32;;;;;;;10.42;100.00;99545.34;6039530;23;20089;-77
2022/11/16 03:02:22;;;;;;;5.43;5.13;;;;;;;10.42;100.00;99540.09;6031824;23;20081;-76
2022/11/16 03:04:53;;;;;;;5.25;4.95;;;;;;;10.28;100.00;99516.59;6039838;23;20110;-73
2022/11/16 03:07:27;;;;;;;5.73;5.33;;;;;;;10.16;100.00;99503.44;6025913;23;20014;-75
2022/11/16 03:09:56;;;;;;;5.00;4.70;;;;;;;9.85;100.00;99452.28;6036208;23;20314;-76
2022/11/16 03:12:27;;;;;;;6.40;5.93;;;;;;;8.85;100.00;99306.41;6024176;23;20394;-74
2022/11/16 03:14:57;;;;;;;5.85;5.45;;;;;;;10.01;100.00;99486.13;6037970;23;20018;-76
2022/11/16 03:17:38;;;;;;;5.45;5.03;;;;;;;10.12;100.00;99503.72;6029350;23;20026;-75
2022/11/16 03:20:14;;;;;;;5.72;5.28;;;;;;;10.31;100.00;99538.25;6033839;23;20027;-75
2022/11/16 03:22:42;;;;;;;6.40;5.93;;;;;;;9.84;100.00;99475.97;6001171;23;20522;-76
2022/11/16 03:25:12;;;;;;;6.10;5.63;;;;;;;10.36;100.00;99565.00;6043041;23;20022;-77
2022/11/16 03:27:48;;;;;;;5.35;5.03;;;;;;;10.37;100.00;99569.28;6038088;23;20078;-76
2022/11/16 03:30:23;;;;;;;5.93;5.53;;;;;;;8.92;100.00;99331.19;6028955;23;20030;-76
2022/11/16 03:33:00;;;;;;;5.60;5.20;;;;;;;9.52;100.00;99429.22;6008809;23;20094;-76
2022/11/16 03:35:37;;;;;;;5.25;4.95;;;;;;;9.71;100.00;99468.94;6028608;23;20125;-74
2022/11/16 03:38:07;;;;;;;5.82;5.43;;;;;;;10.24;100.00;99557.94;6003498;23;20030;-75
2022/11/16 03:40:35;;;;;;;6.18;5.78;;;;;;;10.16;100.00;99547.13;6007065;23;20035;-74
2022/11/16 03:43:03;;;;;;;5.90;5.55;;;;;;;10.38;100.00;99586.72;6035039;23;20031;-74
2022/11/16 03:45:31;;;;;;;6.57;5.57;;;;;;;9.07;100.00;99387.72;6003262;23;20505;-76
2022/11/16 03:47:58;;;;;;;6.70;6.05;;;;;;;9.86;100.00;99514.25;6028558;23;20026;-76
2022/11/16 03:50:25;;;;;;;5.93;5.53;;;;;;;9.44;100.00;99448.09;5981785;23;20023;-75
2022/11/16 03:52:52;;;;;;;5.18;4.88;;;;;;;10.38;100.00;99591.97;6030376;23;20082;-75
2022/11/16 03:55:18;;;;;;;6.05;5.28;;;;;;;10.25;100.00;99577.16;6011899;23;20017;-75
2022/11/16 03:57:44;;;;;;;6.25;5.63;;;;;;;10.33;100.00;99585.34;6042198;23;20123;-76
2022/11/16 04:00:11;;;;;;;5.65;5.25;;;;;;;10.16;100.00;99582.06;6022370;23;20044;-75
2022/11/16 04:02:38;;;;;;;5.88;5.43;;;;;;;10.22;100.00;99591.28;6046423;23;20053;-76
2022/11/16 04:24:38;;;;;;;6.88;6.30;;;;;;;10.38;100.00;99626.06;6039357;23;20015;-77
2022/11/16 04:29:56;;;;;;;6.85;6.25;;;;;;;10.09;100.00;99596.53;6044625;23;20039;-73
2022/11/16 04:37:55;;;;;;;6.82;6.03;;;;;;;10.15;100.00;99600.53;6044051;23;20086;-75
2022/11/16 04:40:25;;;;;;;6.00;5.53;;;;;;;10.30;100.00;99640.63;6031327;23;20022;-76
2022/11/16 04:42:56;;;;;;;8.43;6.75;;;;;;;9.85;100.00;99553.66;6042762;23;20030;-76
2022/11/16 04:48:18;;;;;;;8.15;5.80;;;;;;;10.27;100.00;99625.91;6022579;23;20093;-76
2022/11/16 04:50:46;;;;;;;6.28;5.18;;;;;;;10.02;100.00;99592.63;6015484;23;20103;-76
2022/11/16 04:53:13;;;;;;;7.40;6.78;;;;;;;9.19;100.00;99462.81;6029741;23;20038;-76
2022/11/16 04:55:39;;;;;;;5.80;5.40;;;;;;;10.25;100.00;99627.78;5986862;23;20027;-75
2022/11/16 04:58:06;;;;;;;5.05;4.80;;;;;;;9.39;100.00;99497.31;6036208;23;20053;-76
2022/11/16 05:00:32;;;;;;;5.05;4.75;;;;;;;9.99;100.00;99601.56;6014143;23;20019;-76
2022/11/16 05:02:59;;;;;;;5.05;4.75;;;;;;;10.26;100.00;99639.13;6045978;23;20026;-75
2022/11/16 05:05:27;;;;;;;4.70;4.50;;;;;;;9.45;100.00;99507.38;6012405;23;20041;-75
2022/11/16 05:07:53;;;;;;;6.00;5.13;;;;;;;9.66;100.00;99549.66;6036598;23;20038;-76
2022/11/16 05:10:20;;;;;;;4.90;4.70;;;;;;;9.72;100.00;99566.72;6037110;23;20521;-74
2022/11/16 05:12:46;;;;;;;4.50;4.20;;;;;;;10.23;100.00;99660.31;6035575;23;20038;-75
2022/11/16 05:15:13;;;;;;;4.93;4.63;;;;;;;9.31;100.00;99499.59;6019301;23;20011;-74
2022/11/16 05:17:39;;;;;;;4.85;4.55;;;;;;;9.41;100.00;99505.91;6024700;23;20034;-77
2022/11/16 05:22:55;;;;;;;4.82;4.53;;;;;;;9.49;100.00;99524.56;6028689;23;20018;-76
2022/11/16 05:25:21;;;;;;;4.80;4.60;;;;;;;10.20;100.00;99640.38;6005432;23;20570;-74
2022/11/16 05:27:48;;;;;;;4.75;4.45;;;;;;;10.19;100.00;99639.53;5999846;23;20031;-75
2022/11/16 05:30:15;;;;;;;6.25;5.95;;;;;;;9.61;100.00;99561.38;6010098;23;20022;-75
2022/11/16 05:32:41;;;;;;;6.07;5.55;;;;;;;10.19;100.00;99644.78;6001527;23;20031;-75
2022/11/16 05:35:08;;;;;;;6.22;5.47;;;;;;;9.13;100.00;99483.34;6036028;23;20011;-75
2022/11/16 05:37:34;;;;;;;5.53;5.22;;;;;;;10.18;100.00;99643.13;6002244;23;20027;-76
2022/11/16 05:40:00;;;;;;;5.57;5.07;;;;;;;9.54;100.00;99553.91;6037726;23;20528;-76
2022/11/16 05:42:27;;;;;;;7.82;4.43;;;;;;;9.85;100.00;99609.50;6036418;23;20480;-75
2022/11/16 05:44:53;;;;;;;4.93;4.63;;;;;;;9.22;100.00;99510.66;6029124;23;20023;-76
2022/11/16 05:47:19;;;;;;;5.47;4.97;;;;;;;9.70;100.00;99605.28;5995645;23;20020;-76
2022/11/16 05:49:46;;;;;;;4.43;4.22;;;;;;;9.91;100.00;99648.41;6027148;23;20423;-76
2022/11/16 05:52:12;;;;;;;4.35;4.15;;;;;;;9.79;100.00;99651.84;6001189;23;20084;-77
2022/11/16 05:54:39;;;;;;;4.93;4.30;;;;;;;8.92;100.00;99516.94;6037500;23;20031;-76
2022/11/16 05:57:07;;;;;;;4.60;4.40;;;;;;;8.43;100.00;99449.47;6011021;23;20069;-75
2022/11/16 05:59:34;;;;;;;4.40;4.20;;;;;;;9.49;100.00;99636.34;6037564;23;20023;-76
2022/11/16 06:02:02;;;;;;;4.72;4.50;;;;;;;9.00;100.00;99580.13;5992979;23;20028;-76
2022/11/16 06:04:29;;;;;;;4.55;4.35;;;;;;;9.33;100.00;99641.72;6006923;23;20102;-74
2022/11/16 06:06:55;;;;;;;8.82;4.85;;;;;;;9.03;100.00;99615.72;6024716;23;20007;-74
2022/11/16 06:09:21;;;;;;;4.60;4.30;;;;;;;8.37;100.00;99526.47;5999386;23;20027;-76
2022/11/16 06:11:48;;;;;;;4.57;4.38;;;;;;;9.09;100.00;99646.75;6005832;23;20032;-75
2022/11/16 06:14:14;;;;;;;4.55;4.35;;;;;;;8.28;100.00;99535.75;6026940;23;20023;-75
2022/11/16 06:16:40;;;;;;;4.72;4.43;;;;;;;8.68;100.00;99608.28;6001464;23;20027;-75
2022/11/16 06:19:07;;;;;;;4.32;4.13;;;;;;;8.85;100.00;99647.31;6022240;23;20644;-74
2022/11/16 06:21:33;;;;;;;4.50;4.30;;;;;;;8.58;100.00;99610.66;6004290;23;20492;-75
2022/11/16 06:24:01;;;;;;;4.50;4.30;;;;;;;8.82;100.00;99662.38;6003739;23;20027;-75
2022/11/16 06:26:27;;;;;;;4.63;4.43;;;;;;;8.76;100.00;99663.59;5998944;23;20519;-74
2022/11/16 06:28:54;;;;;;;4.63;4.32;;;;;;;8.71;100.00;99673.50;6023843;23;20041;-76
2022/11/16 06:31:21;;;;;;;5.82;5.53;;;;;;;8.63;100.00;99676.56;5992930;23;20087;-75
2022/11/16 06:33:47;;;;;;;4.20;4.00;;;;;;;8.57;100.00;99679.56;6027936;23;20018;-75
2022/11/16 06:36:13;;;;;;;4.88;4.47;;;;;;;7.53;100.00;99521.94;6007275;23;20019;-74
2022/11/16 06:38:40;;;;;;;4.47;4.28;;;;;;;8.32;100.00;99665.31;6026422;23;20037;-74
2022/11/16 06:41:06;;;;;;;4.68;4.45;;;;;;;7.96;100.00;99619.53;6002726;23;20086;-75
2022/11/16 06:43:33;;;;;;;4.40;4.20;;;;;;;7.76;100.00;99588.50;6021768;23;20025;-75
2022/11/16 06:45:59;;;;;;;4.85;4.65;;;;;;;8.30;100.00;99674.16;5994934;23;20023;-76
2022/11/16 06:48:26;;;;;;;4.45;4.25;;;;;;;8.50;100.00;99714.84;6014815;23;20070;-75
2022/11/16 06:50:52;;;;;;;4.97;4.68;;;;;;;7.93;100.00;99618.84;6033823;23;20128;-75
2022/11/16 06:53:20;;;;;;;4.65;4.35;;;;;;;8.00;100.00;99635.88;6035039;23;20022;-75
2022/11/16 06:55:54;;;;;;;4.68;4.47;;;;;;;8.38;100.00;99706.78;6035435;23;20060;-76
2022/11/16 06:58:20;;;;;;;4.35;4.15;;;;;;;8.05;100.00;99664.31;6039190;23;20041;-76
2022/11/16 07:00:48;;;;;;;4.28;4.07;;;;;;;7.28;100.00;99548.63;6021214;23;20091;-75
2022/11/16 07:03:14;;;;;;;4.43;4.22;;;;;;;8.31;100.00;99725.53;6000084;23;20026;-72
2022/11/16 07:05:41;;;;;;;4.90;4.65;;;;;;;7.63;100.00;99673.69;6018871;23;20179;-72
2022/11/16 07:08:08;;;;;;;4.68;4.47;;;;;;;8.05;100.00;99693.06;6000160;23;20086;-71
2022/11/16 07:10:35;;;;;;;5.25;4.75;;;;;;;8.03;100.00;99716.66;6018174;23;20533;-73
2022/11/16 07:13:03;;;;;;;4.30;4.10;;;;;;;7.86;100.00;99686.28;5996587;23;20023;-70
2022/11/16 07:15:30;;;;;;;4.38;4.18;;;;;;;8.05;100.00;99725.25;6022387;23;20583;-71
2022/11/16 07:18:01;;;;;;;4.28;4.07;;;;;;;8.10;100.00;99740.69;5996007;23;20037;-73
2022/11/16 07:20:28;;;;;;;4.15;3.95;;;;;;;8.07;100.00;99744.31;6024336;23;20026;-72
2022/11/16 07:22:54;;;;;;;4.57;4.38;;;;;;;7.83;100.00;99724.81;5981860;23;20040;-71
2022/11/16 07:25:21;;;;;;;4.68;4.38;;;;;;;7.72;100.00;99700.13;6022849;23;20035;-71
2022/11/16 07:27:47;;;;;;;4.43;4.22;;;;;;;6.92;100.00;99568.03;6001803;23;20093;-71
2022/11/16 07:30:13;;;;;;;4.65;4.25;;;;;;;8.00;100.00;99756.06;6022479;23;20018;-71
2022/11/16 07:32:59;;;;;;;4.95;4.07;;;;;;;8.00;100.00;99766.50;5997623;23;20035;-72
2022/11/16 07:35:44;;;;;;;5.60;5.22;;;;;;;7.80;100.00;99738.88;6005358;23;20027;-71
2022/11/16 07:38:10;;;;;;;5.22;4.93;;;;;;;8.02;100.00;99774.22;6000445;23;20019;-71
2022/11/16 07:41:01;;;;;;;;;;;;;;;8.03;100.00;99768.09;6030756;23;20492;-71
2022/11/16 07:44:07;;;;;;;4.18;3.97;;;;;;;8.04;100.00;99774.97;6025365;23;19922;-71
2022/11/16 07:49:54;;;;;;;4.53;4.28;;;;;;;8.08;100.00;99786.94;5844068;24;20509;-71
2022/11/16 07:52:21;;;;;;;4.70;4.50;;;;;;;8.12;100.00;99785.88;6012143;23;20027;-70
2022/11/16 07:54:47;;;;;;;4.35;4.10;;;;;;;8.12;100.00;99791.94;6008103;23;20031;-71
2022/11/16 07:57:13;;;;;;;4.40;3.97;;;;;;;8.05;100.00;99774.06;6024278;23;20082;-73
2022/11/16 07:59:40;;;;;;;9.52;4.32;;;;;;;7.30;100.00;99672.88;5995527;23;20034;-73
2022/11/16 08:02:08;;;;;;;4.50;4.25;;;;;;;8.15;100.00;99783.06;6020004;23;20047;-71
2022/11/16 08:04:37;;;;;;;4.55;4.25;;;;;;;7.81;100.00;99732.72;6022893;23;20059;-71
2022/11/16 08:07:04;;;;;;;4.90;4.40;;;;;;;8.22;100.00;99796.63;5995047;23;20024;-71
2022/11/16 08:09:30;;;;;;;4.10;3.90;;;;;;;7.92;100.00;99735.56;6017190;23;20094;-70
2022/11/16 08:11:56;;;;;;;3.97;3.80;;;;;;;8.17;100.00;99778.59;6019385;23;20045;-70
2022/11/16 08:14:23;;;;;;;4.28;4.07;;;;;;;8.36;100.00;99797.53;6019328;23;20038;-71
2022/11/16 08:16:49;;;;;;;4.10;3.90;;;;;;;8.00;100.00;99732.53;6005936;23;20124;-70
2022/11/16 08:19:15;;;;;;;4.85;4.55;;;;;;;8.09;100.00;99745.06;6028229;23;20066;-70
2022/11/16 08:21:44;;;;;;;4.72;4.43;;;;;;;8.21;100.00;99759.19;6042755;23;20026;-70
2022/11/16 08:24:10;;;;;;;5.35;4.65;;;;;;;8.24;100.00;99755.56;6008831;23;20027;-73
2022/11/16 08:26:37;;;;;;;4.25;4.05;;;;;;;8.49;100.00;99802.09;6038561;23;20043;-70
2022/11/16 08:29:03;;;;;;;4.40;4.20;;;;;;;8.38;100.00;99779.97;5999724;23;20127;-71
2022/11/16 08:31:30;;;;;;;4.25;4.05;;;;;;;8.52;100.00;99794.03;6039832;23;20023;-70
2022/11/16 08:33:58;;;;;;;4.20;4.00;;;;;;;8.18;100.00;99744.53;6000479;23;20026;-72
2022/11/16 08:36:25;;;;;;;4.10;3.90;;;;;;;8.52;100.00;99788.81;6040346;23;20125;-71
2022/11/16 08:38:52;;;;;;;4.75;4.55;;;;;;;8.59;100.00;99793.59;6005939;23;20023;-71
2022/11/16 08:41:19;;;;;;;4.60;4.40;;;;;;;8.59;100.00;99782.31;6019808;23;20030;-74
2022/11/16 08:43:46;;;;;;;4.25;3.95;;;;;;;8.54;100.00;99745.13;5995650;23;20031;-73
2022/11/16 08:46:13;;;;;;;4.00;3.80;;;;;;;8.81;100.00;99786.28;6019769;23;20081;-71
2022/11/16 08:48:39;;;;;;;4.93;4.65;;;;;;;9.01;100.00;99808.63;5999213;23;20035;-73
2022/11/16 08:51:12;;;;;;;4.43;4.18;;;;;;;9.15;100.00;99795.56;6026112;23;20033;-70
2022/11/16 08:53:57;;;;;;;5.43;4.70;;;;;;;9.31;100.00;99782.38;5987729;23;20363;-70
2022/11/16 08:56:26;;;;;;;4.43;4.18;;;;;;;9.44;100.00;99792.91;6022045;23;20026;-70
2022/11/16 08:58:53;;;;;;;4.13;3.92;;;;;;;9.68;100.00;99778.31;6024312;23;20029;-70
2022/11/16 09:01:27;;;;;;;5.88;4.75;;;;;;;9.92;100.00;99783.75;6021799;23;20450;-72
2022/11/16 09:03:54;;;;;;;5.30;4.47;;;;;;;9.76;100.00;99704.44;6022057;23;20037;-73
2022/11/16 09:06:23;;;;;;;4.85;4.45;;;;;;;10.10;100.00;99745.03;5997195;23;20391;-71
2022/11/16 09:08:50;;;;;;;5.13;4.82;;;;;;;10.30;100.00;99759.50;6021697;23;20466;-70
2022/11/16 09:11:19;;;;;;;4.40;4.20;;;;;;;9.89;100.00;99707.09;5999515;23;20043;-73
2022/11/16 09:13:46;;;;;;;4.65;4.45;;;;;;;10.21;100.00;99783.66;6015522;23;20093;-71
2022/11/16 09:16:15;;;;;;;4.45;4.25;;;;;;;10.12;100.00;99768.50;5994488;23;20031;-74
2022/11/16 09:18:43;;;;;;;4.30;4.10;;;;;;;9.97;100.00;99763.31;6022829;23;20025;-72
2022/11/16 09:21:09;;;;;;;4.20;4.00;;;;;;;9.97;100.00;99791.31;5999016;23;20548;-73
2022/11/16 09:23:35;;;;;;;4.63;4.35;;;;;;;9.92;100.00;99798.63;6031648;23;20544;-72
2022/11/16 09:26:04;;;;;;;4.32;4.13;;;;;;;9.83;100.00;99799.22;6032735;23;20097;-72
2022/11/16 09:28:31;;;;;;;4.80;4.55;;;;;;;9.78;100.00;99807.34;6024212;23;20031;-72
2022/11/16 09:31:01;;;;;;;5.05;4.53;;;;;;;8.88;100.00;99681.16;6027262;23;20677;-72
2022/11/16 09:33:29;;;;;;;4.47;4.22;;;;;;;9.63;100.00;99805.72;6021851;23;20035;-76
2022/11/16 09:36:05;;;;;;;5.00;4.70;;;;;;;9.39;100.00;99773.09;6002723;23;20339;-74
2022/11/16 09:38:40;;;;;;;5.45;4.95;;;;;;;8.15;100.00;99553.09;6027608;23;20027;-74
2022/11/16 09:41:48;;;;;;;4.70;4.30;;;;;;;9.89;100.00;99825.03;5994683;23;20019;-76
2022/11/16 09:44:39;;;;;;;4.22;4.03;;;;;;;10.04;100.00;99828.47;6026456;23;20025;-76
2022/11/16 09:47:16;;;;;;;4.50;4.30;;;;;;;10.01;100.00;99812.94;5999140;23;20035;-72
2022/11/16 09:49:49;;;;;;;4.38;4.18;;;;;;;10.12;100.00;99813.94;6022234;23;20034;-72
2022/11/16 09:52:29;;;;;;;10.48;4.47;;;;;;;10.12;100.00;99792.09;5999260;23;20027;-72
2022/11/16 09:54:58;;;;;;;4.63;4.43;;;;;;;10.00;100.00;99754.41;6024766;23;20600;-78
2022/11/16 09:57:30;;;;;;;4.35;4.05;;;;;;;9.74;100.00;99687.97;6038746;23;20027;-76
2022/11/16 10:00:03;;;;;;;4.50;4.30;;;;;;;10.33;100.00;99722.56;6031883;23;20026;-75
2022/11/16 10:02:37;;;;;;;4.75;4.55;;;;;;;11.25;100.00;99843.25;6041469;23;20022;-75
2022/11/16 10:05:24;;;;;;;4.43;4.22;;;;;;;10.95;100.00;99779.59;6023590;23;20015;-80
2022/11/16 10:08:01;;;;;;;5.20;4.90;;;;;;;11.64;100.00;99846.66;6015293;23;20027;-80
2022/11/16 10:10:38;;;;;;;5.07;4.55;;;;;;;11.76;100.00;99840.53;6029290;23;20023;-72
2022/11/16 10:13:35;;;;;;;4.50;4.20;;;;;;;11.88;100.00;99847.56;6001123;23;20627;-72
2022/11/16 10:16:27;;;;;;;4.43;4.22;;;;;;;11.51;100.00;99778.38;6040234;23;20638;-71
2022/11/16 10:19:11;;;;;;;4.63;4.35;;;;;;;11.55;100.00;99761.44;6028314;23;20085;-70
2022/11/16 10:21:44;;;;;;;5.20;4.80;;;;;;;12.00;100.00;99831.91;6038332;23;20875;-74
2022/11/16 10:24:45;;;;;;;5.15;4.45;;;;;;;12.16;100.00;99827.19;6010932;23;20035;-76
2022/11/16 10:27:31;;;;;;;6.40;5.80;;;;;;;12.22;100.00;99818.84;6035795;23;20027;-78
2022/11/16 10:30:17;;;;;;;5.43;4.93;;;;;;;12.14;100.00;99827.31;6006056;23;20019;-75
2022/11/16 10:32:53;;;;;;;4.30;4.10;;;;;;;12.06;98.16;99808.63;6039588;23;20372;-80
2022/11/16 10:35:44;;;;;;;5.75;5.53;;;;;;;12.08;98.46;99790.94;6020750;23;20023;-78
2022/11/16 10:38:17;;;;;;;5.30;4.63;;;;;;;12.27;94.81;99794.88;6025402;23;20023;-78
2022/11/16 10:40:51;;;;;;;4.72;4.50;;;;;;;12.30;93.61;99789.34;5907472;23;20038;-75
2022/11/16 10:43:39;;;;;;;4.85;4.50;;;;;;;12.32;92.01;99775.13;6028124;23;20010;-73
2022/11/16 10:46:25;;;;;;;5.35;4.95;;;;;;;12.35;92.90;99784.59;6010907;23;20619;-75
2022/11/16 10:49:06;;;;;;;4.80;4.50;;;;;;;12.55;93.29;99780.50;6022730;23;20480;-70
2022/11/16 10:51:32;;;;;;;10.20;4.85;;;;;;;12.65;91.32;99773.56;6001099;23;20027;-71
2022/11/16 10:53:58;;;;;;;4.60;4.40;;;;;;;12.48;90.34;99761.66;6036686;23;20109;-70
2022/11/16 10:56:31;;;;;;;5.45;5.05;;;;;;;12.58;89.90;99764.44;6028129;23;20613;-69
2022/11/16 10:59:04;;;;;;;6.13;5.32;;;;;;;12.72;90.92;99753.72;6031393;23;20031;-69
2022/11/16 11:01:52;;;;;;;6.28;5.03;;;;;;;12.95;92.50;99753.75;6027958;23;20057;-69
2022/11/16 11:04:21;;;;;;;6.05;4.75;;;;;;;13.08;91.41;99756.28;6035450;23;20022;-68
2022/11/16 11:07:00;;;;;;;6.53;4.72;;;;;;;12.94;90.97;99737.09;6007907;23;20097;-69
2022/11/16 11:09:30;;;;;;;5.20;4.80;;;;;;;13.10;90.17;99749.09;6039564;23;20039;-67
2022/11/16 11:15:09;;;;;;;4.80;4.60;;;;;;;13.28;88.61;99728.38;6025957;23;20045;-71
2022/11/16 11:17:46;;;;;;;4.95;4.65;;;;;;;13.18;87.45;99712.44;6003340;23;20035;-69
2022/11/16 11:20:15;;;;;;;5.03;4.72;;;;;;;13.20;87.47;99712.31;6003945;23;20040;-67
2022/11/16 11:22:47;;;;;;;4.68;4.38;;;;;;;13.11;87.71;99685.75;6011403;23;20575;-69
2022/11/16 11:25:27;;;;;;;5.30;4.90;;;;;;;13.36;87.52;99697.84;6026364;23;20081;-68
2022/11/16 11:28:16;;;;;;;5.50;5.18;;;;;;;13.54;88.36;99706.06;6021581;23;20026;-66
2022/11/16 11:31:00;;;;;;;5.50;5.10;;;;;;;13.57;87.49;99695.28;6003565;23;20039;-68
2022/11/16 11:33:36;;;;;;;6.70;4.95;;;;;;;13.63;85.98;99683.41;6035116;23;20077;-68
2022/11/16 11:36:17;;;;;;;5.07;4.78;;;;;;;13.55;84.60;99669.97;6030226;23;20021;-68
2022/11/16 11:39:25;;;;;;;5.93;4.85;;;;;;;13.23;83.77;99627.75;6028704;23;20283;-67
2022/11/16 11:42:11;;;;;;;4.90;4.60;;;;;;;13.48;84.90;99661.75;6001588;23;20033;-67
2022/11/16 11:44:56;;;;;;;5.78;5.32;;;;;;;13.11;84.09;99600.59;6025630;23;20019;-68
2022/11/16 11:47:30;;;;;;;7.30;4.53;;;;;;;13.15;84.27;99602.88;5996668;23;20066;-68
2022/11/16 11:50:26;;;;;;;4.80;4.50;;;;;;;13.33;83.96;99621.66;6031751;23;20076;-68
2022/11/16 11:53:05;;;;;;;5.72;5.13;;;;;;;13.34;84.31;99633.03;5983874;23;20024;-68
2022/11/16 11:55:33;;;;;;;5.20;4.90;;;;;;;13.31;85.67;99605.16;6038663;23;20576;-68
2022/11/16 11:58:03;;;;;;;7.80;7.40;;;;;;;13.51;86.01;99618.47;6000222;23;20107;-67
2022/11/16 12:00:40;;;;;;;5.25;4.95;;;;;;;13.25;84.22;99610.03;6026298;23;20010;-67
2022/11/16 12:03:28;;;;;;;5.50;5.20;;;;;;;13.18;85.04;99618.44;6030658;23;20469;-68
2022/11/16 12:06:04;;;;;;;6.10;5.57;;;;;;;13.29;87.35;99624.63;6007272;23;20172;-68
2022/11/16 12:08:46;;;;;;;5.68;5.20;;;;;;;13.49;86.29;99626.53;6004658;23;20360;-68
2022/11/16 12:11:27;;;;;;;7.32;5.00;;;;;;;13.59;85.81;99623.13;6033267;23;20864;-68
2022/11/16 12:14:14;;;;;;;7.00;5.22;;;;;;;13.42;83.88;99577.91;6006573;23;20158;-68
2022/11/16 12:17:10;;;;;;;5.10;4.70;;;;;;;12.75;85.20;99465.69;6044164;23;20366;-67
2022/11/16 12:20:10;;;;;;;5.20;4.85;;;;;;;13.54;83.19;99591.88;6032644;23;20031;-68
2022/11/16 12:22:54;;;;;;;4.90;4.70;;;;;;;13.35;82.69;99582.84;6002951;23;20041;-68
2022/11/16 12:25:40;;;;;;;5.15;4.95;;;;;;;12.41;81.93;99468.41;6022424;23;20030;-68
2022/11/16 12:28:15;;;;;;;4.90;4.60;;;;;;;12.81;83.42;99580.19;6059361;23;20014;-68
2022/11/16 12:31:07;;;;;;;6.47;4.97;;;;;;;12.61;84.64;99579.13;6030441;23;20079;-68
2022/11/16 12:33:46;;;;;;;5.82;4.57;;;;;;;12.46;88.26;99579.38;6029105;23;20101;-69
2022/11/16 12:36:28;;;;;;;8.60;4.90;;;;;;;12.49;89.25;99594.94;6033489;23;20369;-68